sensor_id;sensor_type;location;lat;lon;timestamp;P1;durP1;ratioP1;P2;durP2;ratioP2
7929;SDS011;4010;42.698;23.124;2023-11-21T00:02:04;2.30;;;1.63;;
7929;SDS011;4010;42.698;23.124;2023-11-21T00:04:31;2.23;;;1.60;;
7929;SDS011;4010;42.698;23.124;2023-11-21T00:06:59;2.37;;;2.17;;
7929;SDS011;4010;42.698;23.124;2023-11-21T00:09:26;3.03;;;2.10;;
7929;SDS011;4010;42.698;23.124;2023-11-21T00:11:52;2.03;;;1.53;;
7929;SDS011;4010;42.698;23.124;2023-11-21T00:14:19;1.73;;;1.43;;
7929;SDS011;4010;42.698;23.124;2023-11-21T00:16:46;2.90;;;2.27;;
7929;SDS011;4010;42.698;23.124;2023-11-21T00:19:12;4.93;;;2.47;;
7929;SDS011;4010;42.698;23.124;2023-11-21T00:21:39;4.50;;;3.03;;
7929;SDS011;4010;42.698;23.124;2023-11-21T00:24:10;4.47;;;2.97;;
7929;SDS011;4010;42.698;23.124;2023-11-21T00:26:38;6.73;;;3.60;;
7929;SDS011;4010;42.698;23.124;2023-11-21T00:29:05;5.17;;;3.63;;
7929;SDS011;4010;42.698;23.124;2023-11-21T00:31:33;6.37;;;4.00;;
7929;SDS011;4010;42.698;23.124;2023-11-21T00:34:01;7.97;;;3.40;;
7929;SDS011;4010;42.698;23.124;2023-11-21T00:36:30;4.43;;;3.13;;
7929;SDS011;4010;42.698;23.124;2023-11-21T00:38:57;6.73;;;2.87;;
7929;SDS011;4010;42.698;23.124;2023-11-21T00:41:25;3.00;;;2.50;;
7929;SDS011;4010;42.698;23.124;2023-11-21T00:43:53;3.40;;;2.17;;
7929;SDS011;4010;42.698;23.124;2023-11-21T00:46:20;2.33;;;2.13;;
7929;SDS011;4010;42.698;23.124;2023-11-21T00:48:47;3.40;;;1.60;;
7929;SDS011;4010;42.698;23.124;2023-11-21T00:51:13;2.17;;;1.80;;
7929;SDS011;4010;42.698;23.124;2023-11-21T00:53:40;2.73;;;1.80;;
7929;SDS011;4010;42.698;23.124;2023-11-21T00:56:07;2.77;;;2.10;;
7929;SDS011;4010;42.698;23.124;2023-11-21T00:58:35;3.63;;;1.80;;
7929;SDS011;4010;42.698;23.124;2023-11-21T01:01:02;2.93;;;1.87;;
7929;SDS011;4010;42.698;23.124;2023-11-21T01:03:29;1.93;;;1.73;;
7929;SDS011;4010;42.698;23.124;2023-11-21T01:05:55;3.93;;;2.20;;
7929;SDS011;4010;42.698;23.124;2023-11-21T01:08:22;2.87;;;2.07;;
7929;SDS011;4010;42.698;23.124;2023-11-21T01:10:50;2.23;;;1.80;;
7929;SDS011;4010;42.698;23.124;2023-11-21T01:13:16;1.70;;;1.60;;
7929;SDS011;4010;42.698;23.124;2023-11-21T01:15:44;2.23;;;1.53;;
7929;SDS011;4010;42.698;23.124;2023-11-21T01:18:11;3.07;;;1.60;;
7929;SDS011;4010;42.698;23.124;2023-11-21T01:20:38;2.43;;;1.60;;
7929;SDS011;4010;42.698;23.124;2023-11-21T01:23:05;2.40;;;1.37;;
7929;SDS011;4010;42.698;23.124;2023-11-21T01:25:32;2.23;;;1.40;;
7929;SDS011;4010;42.698;23.124;2023-11-21T01:27:58;2.57;;;1.57;;
7929;SDS011;4010;42.698;23.124;2023-11-21T01:30:25;1.40;;;1.20;;
7929;SDS011;4010;42.698;23.124;2023-11-21T01:32:53;2.20;;;1.30;;
7929;SDS011;4010;42.698;23.124;2023-11-21T01:35:20;1.97;;;1.30;;
7929;SDS011;4010;42.698;23.124;2023-11-21T01:37:46;1.53;;;1.43;;
7929;SDS011;4010;42.698;23.124;2023-11-21T01:40:14;2.50;;;1.40;;
7929;SDS011;4010;42.698;23.124;2023-11-21T01:42:41;2.47;;;1.30;;
7929;SDS011;4010;42.698;23.124;2023-11-21T01:45:08;1.00;;;0.97;;
7929;SDS011;4010;42.698;23.124;2023-11-21T01:47:37;1.40;;;1.20;;
7929;SDS011;4010;42.698;23.124;2023-11-21T01:50:06;2.03;;;1.70;;
7929;SDS011;4010;42.698;23.124;2023-11-21T01:52:37;2.80;;;1.40;;
7929;SDS011;4010;42.698;23.124;2023-11-21T01:55:06;1.60;;;1.50;;
7929;SDS011;4010;42.698;23.124;2023-11-21T01:57:34;1.10;;;1.00;;
7929;SDS011;4010;42.698;23.124;2023-11-21T02:00:03;2.50;;;1.10;;
7929;SDS011;4010;42.698;23.124;2023-11-21T02:02:41;2.47;;;1.27;;
7929;SDS011;4010;42.698;23.124;2023-11-21T02:05:10;1.90;;;0.90;;
7929;SDS011;4010;42.698;23.124;2023-11-21T02:07:38;4.83;;;1.27;;
7929;SDS011;4010;42.698;23.124;2023-11-21T02:10:05;1.93;;;1.30;;
7929;SDS011;4010;42.698;23.124;2023-11-21T02:12:33;1.30;;;1.00;;
7929;SDS011;4010;42.698;23.124;2023-11-21T02:15:02;2.20;;;1.13;;
7929;SDS011;4010;42.698;23.124;2023-11-21T02:17:30;1.80;;;1.27;;
7929;SDS011;4010;42.698;23.124;2023-11-21T02:19:57;1.90;;;1.40;;
7929;SDS011;4010;42.698;23.124;2023-11-21T02:22:26;4.80;;;2.00;;
7929;SDS011;4010;42.698;23.124;2023-11-21T02:24:58;2.10;;;1.60;;
7929;SDS011;4010;42.698;23.124;2023-11-21T02:27:25;2.43;;;1.67;;
7929;SDS011;4010;42.698;23.124;2023-11-21T02:29:53;2.30;;;2.10;;
7929;SDS011;4010;42.698;23.124;2023-11-21T02:32:19;3.83;;;1.83;;
7929;SDS011;4010;42.698;23.124;2023-11-21T02:34:48;3.60;;;2.40;;
7929;SDS011;4010;42.698;23.124;2023-11-21T02:37:15;2.37;;;1.57;;
7929;SDS011;4010;42.698;23.124;2023-11-21T02:39:41;2.73;;;1.53;;
7929;SDS011;4010;42.698;23.124;2023-11-21T02:42:10;2.40;;;1.10;;
7929;SDS011;4010;42.698;23.124;2023-11-21T02:44:36;2.53;;;1.50;;
7929;SDS011;4010;42.698;23.124;2023-11-21T02:47:03;1.03;;;1.00;;
7929;SDS011;4010;42.698;23.124;2023-11-21T02:49:30;1.37;;;1.03;;
7929;SDS011;4010;42.698;23.124;2023-11-21T02:51:59;3.20;;;1.43;;
7929;SDS011;4010;42.698;23.124;2023-11-21T02:54:26;2.30;;;1.77;;
7929;SDS011;4010;42.698;23.124;2023-11-21T02:56:53;1.30;;;1.20;;
7929;SDS011;4010;42.698;23.124;2023-11-21T02:59:21;1.83;;;1.70;;
7929;SDS011;4010;42.698;23.124;2023-11-21T03:01:48;2.50;;;1.87;;
7929;SDS011;4010;42.698;23.124;2023-11-21T03:04:15;6.10;;;1.80;;
7929;SDS011;4010;42.698;23.124;2023-11-21T03:06:43;2.30;;;1.50;;
7929;SDS011;4010;42.698;23.124;2023-11-21T03:09:09;3.33;;;2.03;;
7929;SDS011;4010;42.698;23.124;2023-11-21T03:11:37;6.03;;;1.80;;
7929;SDS011;4010;42.698;23.124;2023-11-21T03:14:04;1.83;;;1.27;;
7929;SDS011;4010;42.698;23.124;2023-11-21T03:16:33;2.43;;;1.57;;
7929;SDS011;4010;42.698;23.124;2023-11-21T03:18:59;1.53;;;1.23;;
7929;SDS011;4010;42.698;23.124;2023-11-21T03:21:26;2.83;;;1.70;;
7929;SDS011;4010;42.698;23.124;2023-11-21T03:23:54;1.80;;;1.57;;
7929;SDS011;4010;42.698;23.124;2023-11-21T03:26:21;4.10;;;1.50;;
7929;SDS011;4010;42.698;23.124;2023-11-21T03:28:47;3.00;;;1.80;;
7929;SDS011;4010;42.698;23.124;2023-11-21T03:31:15;2.65;;;1.77;;
7929;SDS011;4010;42.698;23.124;2023-11-21T03:33:45;2.47;;;1.93;;
7929;SDS011;4010;42.698;23.124;2023-11-21T03:36:12;4.93;;;2.30;;
7929;SDS011;4010;42.698;23.124;2023-11-21T03:38:40;3.22;;;1.80;;
7929;SDS011;4010;42.698;23.124;2023-11-21T03:41:07;4.13;;;2.10;;
7929;SDS011;4010;42.698;23.124;2023-11-21T03:43:35;3.27;;;1.87;;
7929;SDS011;4010;42.698;23.124;2023-11-21T03:46:02;3.23;;;1.90;;
7929;SDS011;4010;42.698;23.124;2023-11-21T03:48:28;2.93;;;2.10;;
7929;SDS011;4010;42.698;23.124;2023-11-21T03:50:57;5.43;;;2.90;;
7929;SDS011;4010;42.698;23.124;2023-11-21T03:53:23;3.60;;;1.93;;
7929;SDS011;4010;42.698;23.124;2023-11-21T03:55:50;5.20;;;2.50;;
7929;SDS011;4010;42.698;23.124;2023-11-21T03:58:17;2.83;;;1.80;;
7929;SDS011;4010;42.698;23.124;2023-11-21T04:00:44;5.13;;;2.33;;
7929;SDS011;4010;42.698;23.124;2023-11-21T04:03:10;3.27;;;2.33;;
7929;SDS011;4010;42.698;23.124;2023-11-21T04:05:38;4.23;;;2.57;;
7929;SDS011;4010;42.698;23.124;2023-11-21T04:08:07;6.80;;;2.83;;
7929;SDS011;4010;42.698;23.124;2023-11-21T04:10:34;4.70;;;3.27;;
7929;SDS011;4010;42.698;23.124;2023-11-21T04:13:01;4.90;;;2.83;;
7929;SDS011;4010;42.698;23.124;2023-11-21T04:15:27;6.43;;;3.63;;
7929;SDS011;4010;42.698;23.124;2023-11-21T04:17:54;5.80;;;3.60;;
7929;SDS011;4010;42.698;23.124;2023-11-21T04:20:21;5.47;;;2.73;;
7929;SDS011;4010;42.698;23.124;2023-11-21T04:22:48;5.73;;;2.57;;
7929;SDS011;4010;42.698;23.124;2023-11-21T04:25:16;3.90;;;2.27;;
7929;SDS011;4010;42.698;23.124;2023-11-21T04:27:44;5.03;;;2.73;;
7929;SDS011;4010;42.698;23.124;2023-11-21T04:30:12;8.53;;;6.87;;
7929;SDS011;4010;42.698;23.124;2023-11-21T04:32:39;7.70;;;2.95;;
7929;SDS011;4010;42.698;23.124;2023-11-21T04:35:07;4.40;;;2.65;;
7929;SDS011;4010;42.698;23.124;2023-11-21T04:37:34;5.20;;;2.93;;
7929;SDS011;4010;42.698;23.124;2023-11-21T04:40:02;4.93;;;3.30;;
7929;SDS011;4010;42.698;23.124;2023-11-21T04:42:33;4.53;;;3.03;;
7929;SDS011;4010;42.698;23.124;2023-11-21T04:45:00;6.13;;;2.67;;
7929;SDS011;4010;42.698;23.124;2023-11-21T04:47:30;5.53;;;2.80;;
7929;SDS011;4010;42.698;23.124;2023-11-21T04:49:57;2.40;;;2.17;;
7929;SDS011;4010;42.698;23.124;2023-11-21T04:52:23;4.50;;;2.70;;
7929;SDS011;4010;42.698;23.124;2023-11-21T04:54:50;3.53;;;2.50;;
7929;SDS011;4010;42.698;23.124;2023-11-21T04:57:19;4.33;;;2.97;;
7929;SDS011;4010;42.698;23.124;2023-11-21T04:59:48;6.53;;;3.67;;
7929;SDS011;4010;42.698;23.124;2023-11-21T05:02:15;4.37;;;2.77;;
7929;SDS011;4010;42.698;23.124;2023-11-21T05:04:44;6.37;;;2.77;;
7929;SDS011;4010;42.698;23.124;2023-11-21T05:07:11;4.00;;;2.77;;
7929;SDS011;4010;42.698;23.124;2023-11-21T05:09:40;3.80;;;2.67;;
7929;SDS011;4010;42.698;23.124;2023-11-21T05:12:09;3.67;;;2.77;;
7929;SDS011;4010;42.698;23.124;2023-11-21T05:14:36;5.23;;;4.33;;
7929;SDS011;4010;42.698;23.124;2023-11-21T05:17:04;7.60;;;4.83;;
7929;SDS011;4010;42.698;23.124;2023-11-21T05:19:30;4.90;;;3.80;;
7929;SDS011;4010;42.698;23.124;2023-11-21T05:21:57;5.00;;;4.37;;
7929;SDS011;4010;42.698;23.124;2023-11-21T05:24:25;5.00;;;4.10;;
7929;SDS011;4010;42.698;23.124;2023-11-21T05:26:53;4.00;;;2.83;;
7929;SDS011;4010;42.698;23.124;2023-11-21T05:29:21;6.23;;;2.83;;
7929;SDS011;4010;42.698;23.124;2023-11-21T05:31:47;8.37;;;3.33;;
7929;SDS011;4010;42.698;23.124;2023-11-21T05:34:16;4.37;;;3.17;;
7929;SDS011;4010;42.698;23.124;2023-11-21T05:36:43;5.40;;;3.07;;
7929;SDS011;4010;42.698;23.124;2023-11-21T05:39:10;8.43;;;5.13;;
7929;SDS011;4010;42.698;23.124;2023-11-21T05:41:37;6.67;;;4.10;;
7929;SDS011;4010;42.698;23.124;2023-11-21T05:44:04;5.03;;;3.40;;
7929;SDS011;4010;42.698;23.124;2023-11-21T05:46:31;6.20;;;3.77;;
7929;SDS011;4010;42.698;23.124;2023-11-21T05:48:58;5.07;;;4.10;;
7929;SDS011;4010;42.698;23.124;2023-11-21T05:51:26;6.17;;;3.70;;
7929;SDS011;4010;42.698;23.124;2023-11-21T05:53:53;6.10;;;4.13;;
7929;SDS011;4010;42.698;23.124;2023-11-21T05:56:19;4.80;;;3.57;;
7929;SDS011;4010;42.698;23.124;2023-11-21T05:58:46;8.57;;;3.77;;
7929;SDS011;4010;42.698;23.124;2023-11-21T06:01:13;4.30;;;3.63;;
7929;SDS011;4010;42.698;23.124;2023-11-21T06:03:40;6.37;;;3.50;;
7929;SDS011;4010;42.698;23.124;2023-11-21T06:06:07;5.30;;;3.63;;
7929;SDS011;4010;42.698;23.124;2023-11-21T06:08:35;5.83;;;3.97;;
7929;SDS011;4010;42.698;23.124;2023-11-21T06:11:02;5.00;;;3.60;;
7929;SDS011;4010;42.698;23.124;2023-11-21T06:13:29;6.20;;;3.03;;
7929;SDS011;4010;42.698;23.124;2023-11-21T06:15:56;4.10;;;3.00;;
7929;SDS011;4010;42.698;23.124;2023-11-21T06:18:23;5.87;;;3.23;;
7929;SDS011;4010;42.698;23.124;2023-11-21T06:20:50;4.17;;;2.47;;
7929;SDS011;4010;42.698;23.124;2023-11-21T06:23:18;3.53;;;2.77;;
7929;SDS011;4010;42.698;23.124;2023-11-21T06:25:46;8.07;;;3.53;;
7929;SDS011;4010;42.698;23.124;2023-11-21T06:28:13;6.97;;;2.90;;
7929;SDS011;4010;42.698;23.124;2023-11-21T06:30:42;5.37;;;3.00;;
7929;SDS011;4010;42.698;23.124;2023-11-21T06:33:10;7.87;;;3.77;;
7929;SDS011;4010;42.698;23.124;2023-11-21T06:35:36;7.53;;;3.73;;
7929;SDS011;4010;42.698;23.124;2023-11-21T06:38:03;9.53;;;4.57;;
7929;SDS011;4010;42.698;23.124;2023-11-21T06:40:30;7.47;;;4.40;;
7929;SDS011;4010;42.698;23.124;2023-11-21T06:43:00;5.13;;;3.50;;
7929;SDS011;4010;42.698;23.124;2023-11-21T06:45:26;5.60;;;3.50;;
7929;SDS011;4010;42.698;23.124;2023-11-21T06:47:53;4.87;;;3.30;;
7929;SDS011;4010;42.698;23.124;2023-11-21T06:50:20;7.10;;;4.27;;
7929;SDS011;4010;42.698;23.124;2023-11-21T06:52:47;4.57;;;3.43;;
7929;SDS011;4010;42.698;23.124;2023-11-21T06:55:14;6.37;;;4.37;;
7929;SDS011;4010;42.698;23.124;2023-11-21T06:57:41;6.20;;;5.03;;
7929;SDS011;4010;42.698;23.124;2023-11-21T07:00:10;12.03;;;4.87;;
7929;SDS011;4010;42.698;23.124;2023-11-21T07:02:37;10.70;;;6.20;;
7929;SDS011;4010;42.698;23.124;2023-11-21T07:05:04;6.00;;;4.33;;
7929;SDS011;4010;42.698;23.124;2023-11-21T07:07:31;6.17;;;3.80;;
7929;SDS011;4010;42.698;23.124;2023-11-21T07:10:00;6.80;;;4.57;;
7929;SDS011;4010;42.698;23.124;2023-11-21T07:12:28;7.50;;;4.83;;
7929;SDS011;4010;42.698;23.124;2023-11-21T07:14:56;5.17;;;4.13;;
7929;SDS011;4010;42.698;23.124;2023-11-21T07:17:24;9.40;;;5.20;;
7929;SDS011;4010;42.698;23.124;2023-11-21T07:19:51;7.87;;;5.33;;
7929;SDS011;4010;42.698;23.124;2023-11-21T07:22:17;5.87;;;4.77;;
7929;SDS011;4010;42.698;23.124;2023-11-21T07:24:47;9.93;;;4.83;;
7929;SDS011;4010;42.698;23.124;2023-11-21T07:27:15;6.47;;;4.13;;
7929;SDS011;4010;42.698;23.124;2023-11-21T07:29:41;7.10;;;4.60;;
7929;SDS011;4010;42.698;23.124;2023-11-21T07:32:08;10.10;;;7.00;;
7929;SDS011;4010;42.698;23.124;2023-11-21T07:34:36;9.37;;;6.03;;
7929;SDS011;4010;42.698;23.124;2023-11-21T07:37:03;5.87;;;5.13;;
7929;SDS011;4010;42.698;23.124;2023-11-21T07:39:30;7.43;;;5.37;;
7929;SDS011;4010;42.698;23.124;2023-11-21T07:41:57;8.57;;;5.90;;
7929;SDS011;4010;42.698;23.124;2023-11-21T07:44:23;10.40;;;5.80;;
7929;SDS011;4010;42.698;23.124;2023-11-21T07:46:51;9.70;;;5.70;;
7929;SDS011;4010;42.698;23.124;2023-11-21T07:49:22;6.90;;;5.40;;
7929;SDS011;4010;42.698;23.124;2023-11-21T07:51:50;11.63;;;5.90;;
7929;SDS011;4010;42.698;23.124;2023-11-21T07:54:17;10.50;;;7.37;;
7929;SDS011;4010;42.698;23.124;2023-11-21T07:56:44;11.07;;;7.80;;
7929;SDS011;4010;42.698;23.124;2023-11-21T07:59:11;13.73;;;7.77;;
7929;SDS011;4010;42.698;23.124;2023-11-21T08:01:39;10.27;;;6.70;;
7929;SDS011;4010;42.698;23.124;2023-11-21T08:04:08;12.40;;;7.50;;
7929;SDS011;4010;42.698;23.124;2023-11-21T08:06:35;11.83;;;7.50;;
7929;SDS011;4010;42.698;23.124;2023-11-21T08:09:03;11.50;;;7.13;;
7929;SDS011;4010;42.698;23.124;2023-11-21T08:11:30;9.67;;;6.97;;
7929;SDS011;4010;42.698;23.124;2023-11-21T08:13:58;10.37;;;6.90;;
7929;SDS011;4010;42.698;23.124;2023-11-21T08:16:25;8.77;;;6.80;;
7929;SDS011;4010;42.698;23.124;2023-11-21T08:18:52;10.43;;;6.30;;
7929;SDS011;4010;42.698;23.124;2023-11-21T08:21:19;10.73;;;7.23;;
7929;SDS011;4010;42.698;23.124;2023-11-21T08:23:48;11.50;;;7.23;;
7929;SDS011;4010;42.698;23.124;2023-11-21T08:26:20;12.93;;;6.97;;
7929;SDS011;4010;42.698;23.124;2023-11-21T08:28:47;10.63;;;7.20;;
7929;SDS011;4010;42.698;23.124;2023-11-21T08:31:13;9.77;;;6.93;;
7929;SDS011;4010;42.698;23.124;2023-11-21T08:33:41;8.87;;;7.03;;
7929;SDS011;4010;42.698;23.124;2023-11-21T08:36:07;11.60;;;7.80;;
7929;SDS011;4010;42.698;23.124;2023-11-21T08:38:36;10.93;;;7.20;;
7929;SDS011;4010;42.698;23.124;2023-11-21T08:41:04;10.67;;;7.67;;
7929;SDS011;4010;42.698;23.124;2023-11-21T08:43:34;11.87;;;7.00;;
7929;SDS011;4010;42.698;23.124;2023-11-21T08:46:01;11.57;;;7.67;;
7929;SDS011;4010;42.698;23.124;2023-11-21T08:48:28;9.67;;;7.13;;
7929;SDS011;4010;42.698;23.124;2023-11-21T08:50:55;7.83;;;6.57;;
7929;SDS011;4010;42.698;23.124;2023-11-21T08:53:22;9.43;;;6.40;;
7929;SDS011;4010;42.698;23.124;2023-11-21T08:55:51;10.37;;;6.17;;
7929;SDS011;4010;42.698;23.124;2023-11-21T08:58:19;11.20;;;6.43;;
7929;SDS011;4010;42.698;23.124;2023-11-21T09:00:47;8.77;;;6.73;;
7929;SDS011;4010;42.698;23.124;2023-11-21T09:03:13;10.27;;;7.40;;
7929;SDS011;4010;42.698;23.124;2023-11-21T09:05:40;9.80;;;8.27;;
7929;SDS011;4010;42.698;23.124;2023-11-21T09:08:07;14.63;;;8.33;;
7929;SDS011;4010;42.698;23.124;2023-11-21T09:10:34;11.40;;;8.23;;
7929;SDS011;4010;42.698;23.124;2023-11-21T09:13:02;12.23;;;8.40;;
7929;SDS011;4010;42.698;23.124;2023-11-21T09:15:28;11.27;;;7.20;;
7929;SDS011;4010;42.698;23.124;2023-11-21T09:17:56;9.97;;;7.60;;
7929;SDS011;4010;42.698;23.124;2023-11-21T09:20:23;7.70;;;6.50;;
7929;SDS011;4010;42.698;23.124;2023-11-21T09:22:50;11.23;;;6.23;;
7929;SDS011;4010;42.698;23.124;2023-11-21T09:25:17;7.30;;;5.23;;
7929;SDS011;4010;42.698;23.124;2023-11-21T09:27:44;8.20;;;5.27;;
7929;SDS011;4010;42.698;23.124;2023-11-21T09:30:12;7.20;;;5.03;;
7929;SDS011;4010;42.698;23.124;2023-11-21T09:32:39;8.80;;;5.97;;
7929;SDS011;4010;42.698;23.124;2023-11-21T09:35:11;8.10;;;5.47;;
7929;SDS011;4010;42.698;23.124;2023-11-21T09:37:39;8.00;;;5.70;;
7929;SDS011;4010;42.698;23.124;2023-11-21T09:40:06;12.80;;;6.10;;
7929;SDS011;4010;42.698;23.124;2023-11-21T09:42:38;9.93;;;6.23;;
7929;SDS011;4010;42.698;23.124;2023-11-21T09:45:11;11.07;;;6.80;;
7929;SDS011;4010;42.698;23.124;2023-11-21T09:47:45;8.17;;;5.77;;
7929;SDS011;4010;42.698;23.124;2023-11-21T09:50:15;9.70;;;6.53;;
7929;SDS011;4010;42.698;23.124;2023-11-21T09:52:45;9.90;;;6.33;;
7929;SDS011;4010;42.698;23.124;2023-11-21T09:55:20;8.70;;;6.00;;
7929;SDS011;4010;42.698;23.124;2023-11-21T09:57:48;13.13;;;6.67;;
7929;SDS011;4010;42.698;23.124;2023-11-21T10:00:15;7.97;;;5.57;;
7929;SDS011;4010;42.698;23.124;2023-11-21T10:02:45;7.00;;;5.10;;
7929;SDS011;4010;42.698;23.124;2023-11-21T10:05:15;7.87;;;5.90;;
7929;SDS011;4010;42.698;23.124;2023-11-21T10:07:43;9.23;;;4.93;;
7929;SDS011;4010;42.698;23.124;2023-11-21T10:10:11;8.80;;;5.47;;
7929;SDS011;4010;42.698;23.124;2023-11-21T10:12:41;7.20;;;5.70;;
7929;SDS011;4010;42.698;23.124;2023-11-21T10:18:01;8.87;;;6.23;;
7929;SDS011;4010;42.698;23.124;2023-11-21T10:20:32;9.97;;;6.67;;
7929;SDS011;4010;42.698;23.124;2023-11-21T10:22:59;8.83;;;5.67;;
7929;SDS011;4010;42.698;23.124;2023-11-21T10:25:28;8.70;;;6.33;;
7929;SDS011;4010;42.698;23.124;2023-11-21T10:27:57;11.63;;;7.27;;
7929;SDS011;4010;42.698;23.124;2023-11-21T10:30:27;10.43;;;7.53;;
7929;SDS011;4010;42.698;23.124;2023-11-21T10:32:58;10.73;;;7.30;;
7929;SDS011;4010;42.698;23.124;2023-11-21T10:35:39;10.83;;;7.33;;
7929;SDS011;4010;42.698;23.124;2023-11-21T10:38:11;8.77;;;6.30;;
7929;SDS011;4010;42.698;23.124;2023-11-21T10:40:39;9.73;;;7.07;;
7929;SDS011;4010;42.698;23.124;2023-11-21T10:43:07;10.90;;;7.80;;
7929;SDS011;4010;42.698;23.124;2023-11-21T10:45:35;11.40;;;7.17;;
7929;SDS011;4010;42.698;23.124;2023-11-21T10:48:04;13.70;;;7.93;;
7929;SDS011;4010;42.698;23.124;2023-11-21T10:50:33;9.23;;;7.13;;
7929;SDS011;4010;42.698;23.124;2023-11-21T10:53:02;8.93;;;6.53;;
7929;SDS011;4010;42.698;23.124;2023-11-21T10:55:30;8.30;;;6.20;;
7929;SDS011;4010;42.698;23.124;2023-11-21T10:57:58;8.87;;;6.17;;
7929;SDS011;4010;42.698;23.124;2023-11-21T11:00:27;11.17;;;6.57;;
7929;SDS011;4010;42.698;23.124;2023-11-21T11:02:54;11.57;;;6.10;;
7929;SDS011;4010;42.698;23.124;2023-11-21T11:05:22;10.27;;;6.27;;
7929;SDS011;4010;42.698;23.124;2023-11-21T11:07:51;8.00;;;5.90;;
7929;SDS011;4010;42.698;23.124;2023-11-21T11:10:26;7.23;;;5.80;;
7929;SDS011;4010;42.698;23.124;2023-11-21T11:12:54;6.93;;;5.00;;
7929;SDS011;4010;42.698;23.124;2023-11-21T11:15:22;8.33;;;5.30;;
7929;SDS011;4010;42.698;23.124;2023-11-21T11:17:50;6.77;;;5.20;;
7929;SDS011;4010;42.698;23.124;2023-11-21T11:20:17;7.97;;;5.43;;
7929;SDS011;4010;42.698;23.124;2023-11-21T11:22:48;6.47;;;5.47;;
7929;SDS011;4010;42.698;23.124;2023-11-21T11:25:33;7.53;;;5.80;;
7929;SDS011;4010;42.698;23.124;2023-11-21T11:28:10;8.37;;;5.93;;
7929;SDS011;4010;42.698;23.124;2023-11-21T11:30:41;11.67;;;6.17;;
7929;SDS011;4010;42.698;23.124;2023-11-21T11:33:22;13.47;;;6.80;;
7929;SDS011;4010;42.698;23.124;2023-11-21T11:35:57;8.77;;;6.50;;
7929;SDS011;4010;42.698;23.124;2023-11-21T11:38:30;10.43;;;7.47;;
7929;SDS011;4010;42.698;23.124;2023-11-21T11:41:01;11.27;;;8.33;;
7929;SDS011;4010;42.698;23.124;2023-11-21T11:43:29;11.73;;;7.83;;
7929;SDS011;4010;42.698;23.124;2023-11-21T11:45:57;13.73;;;9.13;;
7929;SDS011;4010;42.698;23.124;2023-11-21T11:48:25;15.73;;;9.10;;
7929;SDS011;4010;42.698;23.124;2023-11-21T11:51:01;12.93;;;9.00;;
7929;SDS011;4010;42.698;23.124;2023-11-21T11:53:32;12.17;;;8.60;;
7929;SDS011;4010;42.698;23.124;2023-11-21T11:58:48;15.73;;;9.70;;
7929;SDS011;4010;42.698;23.124;2023-11-21T12:01:17;11.67;;;9.53;;
7929;SDS011;4010;42.698;23.124;2023-11-21T12:03:45;15.53;;;9.20;;
7929;SDS011;4010;42.698;23.124;2023-11-21T12:06:56;13.03;;;9.23;;
7929;SDS011;4010;42.698;23.124;2023-11-21T12:09:25;14.00;;;9.57;;
7929;SDS011;4010;42.698;23.124;2023-11-21T12:11:54;14.70;;;9.70;;
7929;SDS011;4010;42.698;23.124;2023-11-21T12:14:21;11.27;;;8.80;;
7929;SDS011;4010;42.698;23.124;2023-11-21T12:16:49;13.43;;;8.67;;
7929;SDS011;4010;42.698;23.124;2023-11-21T12:19:16;12.07;;;8.23;;
7929;SDS011;4010;42.698;23.124;2023-11-21T12:21:43;10.50;;;6.57;;
7929;SDS011;4010;42.698;23.124;2023-11-21T12:24:11;9.00;;;7.17;;
7929;SDS011;4010;42.698;23.124;2023-11-21T12:26:39;13.17;;;7.17;;
7929;SDS011;4010;42.698;23.124;2023-11-21T12:29:07;8.00;;;5.47;;
7929;SDS011;4010;42.698;23.124;2023-11-21T12:31:34;7.10;;;4.63;;
7929;SDS011;4010;42.698;23.124;2023-11-21T12:34:01;7.77;;;5.60;;
7929;SDS011;4010;42.698;23.124;2023-11-21T12:36:28;8.60;;;7.10;;
7929;SDS011;4010;42.698;23.124;2023-11-21T12:38:56;10.70;;;8.67;;
7929;SDS011;4010;42.698;23.124;2023-11-21T12:41:23;8.37;;;6.47;;
7929;SDS011;4010;42.698;23.124;2023-11-21T12:43:50;9.03;;;5.50;;
7929;SDS011;4010;42.698;23.124;2023-11-21T12:46:19;6.00;;;4.20;;
7929;SDS011;4010;42.698;23.124;2023-11-21T12:48:46;6.83;;;4.77;;
7929;SDS011;4010;42.698;23.124;2023-11-21T12:51:13;6.07;;;3.80;;
7929;SDS011;4010;42.698;23.124;2023-11-21T12:53:41;7.97;;;4.87;;
7929;SDS011;4010;42.698;23.124;2023-11-21T12:56:09;6.23;;;5.10;;
7929;SDS011;4010;42.698;23.124;2023-11-21T12:58:37;8.30;;;5.90;;
7929;SDS011;4010;42.698;23.124;2023-11-21T13:01:05;12.70;;;8.20;;
7929;SDS011;4010;42.698;23.124;2023-11-21T13:03:38;9.83;;;7.10;;
7929;SDS011;4010;42.698;23.124;2023-11-21T13:06:05;11.97;;;7.40;;
7929;SDS011;4010;42.698;23.124;2023-11-21T13:08:33;11.70;;;6.90;;
7929;SDS011;4010;42.698;23.124;2023-11-21T13:11:00;14.13;;;8.00;;
7929;SDS011;4010;42.698;23.124;2023-11-21T13:13:28;9.53;;;7.20;;
7929;SDS011;4010;42.698;23.124;2023-11-21T13:15:57;12.47;;;7.97;;
7929;SDS011;4010;42.698;23.124;2023-11-21T13:18:27;12.90;;;9.00;;
7929;SDS011;4010;42.698;23.124;2023-11-21T13:20:58;11.23;;;8.83;;
7929;SDS011;4010;42.698;23.124;2023-11-21T13:23:25;13.03;;;8.80;;
7929;SDS011;4010;42.698;23.124;2023-11-21T13:25:54;14.17;;;9.00;;
7929;SDS011;4010;42.698;23.124;2023-11-21T13:28:21;11.93;;;8.07;;
7929;SDS011;4010;42.698;23.124;2023-11-21T13:30:49;13.27;;;7.83;;
7929;SDS011;4010;42.698;23.124;2023-11-21T13:33:18;12.27;;;7.63;;
7929;SDS011;4010;42.698;23.124;2023-11-21T13:35:47;13.17;;;8.40;;
7929;SDS011;4010;42.698;23.124;2023-11-21T13:38:18;10.57;;;8.17;;
7929;SDS011;4010;42.698;23.124;2023-11-21T13:40:48;14.27;;;8.73;;
7929;SDS011;4010;42.698;23.124;2023-11-21T13:43:18;22.30;;;18.87;;
7929;SDS011;4010;42.698;23.124;2023-11-21T13:45:47;15.77;;;9.93;;
7929;SDS011;4010;42.698;23.124;2023-11-21T13:48:16;11.70;;;8.13;;
7929;SDS011;4010;42.698;23.124;2023-11-21T13:50:50;13.80;;;8.87;;
7929;SDS011;4010;42.698;23.124;2023-11-21T13:53:25;12.70;;;9.20;;
7929;SDS011;4010;42.698;23.124;2023-11-21T13:55:52;11.80;;;8.43;;
7929;SDS011;4010;42.698;23.124;2023-11-21T13:58:22;11.73;;;8.50;;
7929;SDS011;4010;42.698;23.124;2023-11-21T14:00:59;15.53;;;9.47;;
7929;SDS011;4010;42.698;23.124;2023-11-21T14:03:26;12.63;;;8.83;;
7929;SDS011;4010;42.698;23.124;2023-11-21T14:06:03;12.77;;;8.73;;
7929;SDS011;4010;42.698;23.124;2023-11-21T14:08:40;15.10;;;8.77;;
7929;SDS011;4010;42.698;23.124;2023-11-21T14:11:07;10.37;;;8.13;;
7929;SDS011;4010;42.698;23.124;2023-11-21T14:13:36;12.07;;;8.97;;
7929;SDS011;4010;42.698;23.124;2023-11-21T14:16:03;15.63;;;9.50;;
7929;SDS011;4010;42.698;23.124;2023-11-21T14:18:31;11.70;;;8.90;;
7929;SDS011;4010;42.698;23.124;2023-11-21T14:21:03;12.73;;;10.10;;
7929;SDS011;4010;42.698;23.124;2023-11-21T14:23:30;14.83;;;10.13;;
7929;SDS011;4010;42.698;23.124;2023-11-21T14:26:01;12.87;;;9.90;;
7929;SDS011;4010;42.698;23.124;2023-11-21T14:28:29;13.20;;;10.27;;
7929;SDS011;4010;42.698;23.124;2023-11-21T14:30:56;14.57;;;8.43;;
7929;SDS011;4010;42.698;23.124;2023-11-21T14:33:22;13.10;;;8.00;;
7929;SDS011;4010;42.698;23.124;2023-11-21T14:35:49;12.40;;;9.63;;
7929;SDS011;4010;42.698;23.124;2023-11-21T14:38:16;16.20;;;12.50;;
7929;SDS011;4010;42.698;23.124;2023-11-21T14:40:43;12.93;;;9.83;;
7929;SDS011;4010;42.698;23.124;2023-11-21T14:43:14;12.53;;;10.17;;
7929;SDS011;4010;42.698;23.124;2023-11-21T14:45:41;13.03;;;10.27;;
7929;SDS011;4010;42.698;23.124;2023-11-21T14:48:07;12.23;;;10.23;;
7929;SDS011;4010;42.698;23.124;2023-11-21T14:50:41;16.00;;;10.37;;
7929;SDS011;4010;42.698;23.124;2023-11-21T14:53:25;13.33;;;8.50;;
7929;SDS011;4010;42.698;23.124;2023-11-21T14:56:08;15.17;;;9.90;;
7929;SDS011;4010;42.698;23.124;2023-11-21T14:58:36;13.80;;;9.57;;
7929;SDS011;4010;42.698;23.124;2023-11-21T15:01:04;15.73;;;11.33;;
7929;SDS011;4010;42.698;23.124;2023-11-21T15:03:31;12.37;;;9.10;;
7929;SDS011;4010;42.698;23.124;2023-11-21T15:06:08;21.70;;;15.20;;
7929;SDS011;4010;42.698;23.124;2023-11-21T15:08:45;21.00;;;13.73;;